Airfield :
LOGIN :

Register | Disclaimer

   EN    FR    IT 

 










Legend :    VFR   Marginal VFR   IFR   Intensive IFR   Very Intensive IFR
Visi :
Ceiling :
>= 8 km
>= 3000ft
5 to 8 km
1000 to 3000 ft
1500m to 5 km
500 to 1000 ft
800 to 1500m
200 to 500 ft
< 800m
< 200 ft
Symbols :   Thunderstorms  Fog  Heavy snow  Heavy precipitations  Wind > 20 kt
SIGMETs :     Misc.  Thunderstorms  Icing  Turbulence  Mountain Waves  Volcanic Ashes






- Airport Elevation : 339 ft
- IATA code : UTI


EFUT - Utti Air Base

CURRENT METAR :
  • 072320Z AUTO 31008KT 290V350 9999 FEW009 SCT071 04/03 Q1017

EXPIRED METARs :
  • 072250Z AUTO 32009KT 270V360 9999 BKN008 05/03 Q1017
  • 072220Z AUTO 32008KT 280V360 9999 BKN008 BKN033 05/04 Q1016
  • 072150Z AUTO 33007KT 280V010 9999 SCT008 OVC031 05/04 Q1016
  • 072120Z 33008KT 280V010 9999 BKN007 BKN015 06/04 Q1015
  • 072050Z 33011G21KT 280V020 9999 BKN008 OVC022 06/05 Q1014

Expired Forecast.



MET'MAP, your aeronautical weather chart ! - Copyright ORBIFLY December 2007 - Disclaimer

ORBIFLY MET'MAP TEAM :

Programming & Development : Alexandra Zaïnal
Concept & original design : Baudouin d'Aumeries
Assistance for programming : Marc-Olivier Méhu
Technical & hardware support : Manuel Goepfert

Contact : metmap@orbifly.com




SOURCES & CREDITS :

   NOAA